createdAt,value
2018-11-14T00:01:47.644Z,9.4
2018-11-14T00:06:47.563Z,9.3
2018-11-14T00:11:47.623Z,9.2
2018-11-14T00:16:47.654Z,9.1
2018-11-14T00:21:47.685Z,9.1
2018-11-14T00:26:47.790Z,9.1
2018-11-14T00:31:47.609Z,9
2018-11-14T00:36:47.474Z,9
2018-11-14T00:41:47.695Z,8.8
2018-11-14T00:46:47.481Z,8.7
2018-11-14T00:51:47.474Z,8.6
2018-11-14T00:56:47.695Z,8.5
2018-11-14T01:01:47.622Z,8.4
2018-11-14T01:06:47.642Z,8.4
2018-11-14T01:11:47.683Z,8.2
2018-11-14T01:16:47.492Z,8.1
2018-11-14T01:21:47.988Z,7.9
2018-11-14T01:26:47.513Z,7.9
2018-11-14T01:31:47.713Z,7.7
2018-11-14T01:36:47.651Z,7.7
2018-11-14T01:41:47.674Z,7.6
2018-11-14T01:46:47.732Z,7.5
2018-11-14T01:51:47.687Z,7.3
2018-11-14T01:56:47.685Z,7.2
2018-11-14T02:01:47.717Z,7.2
2018-11-14T02:06:47.757Z,7.1
2018-11-14T02:11:47.656Z,6.9
2018-11-14T02:16:47.719Z,6.8
2018-11-14T02:21:47.764Z,6.8
2018-11-14T02:26:47.677Z,6.7
2018-11-14T02:31:47.532Z,6.6
2018-11-14T02:36:47.536Z,6.6
2018-11-14T02:41:47.673Z,6.6
2018-11-14T02:46:47.716Z,6.6
2018-11-14T02:51:47.758Z,6.5
2018-11-14T02:56:47.801Z,6.6
2018-11-14T03:01:47.534Z,6.6
2018-11-14T03:06:47.552Z,6.4
2018-11-14T03:11:47.670Z,6.2
2018-11-14T03:16:47.555Z,6.3
2018-11-14T03:21:47.543Z,6.3
2018-11-14T03:26:47.742Z,6.2
2018-11-14T03:31:47.569Z,6.3
2018-11-14T03:36:47.752Z,6
2018-11-14T03:41:47.785Z,6
2018-11-14T03:46:47.816Z,6.1
2018-11-14T03:51:47.572Z,6
2018-11-14T03:56:47.788Z,6.1
2018-11-14T04:01:47.538Z,5.9
2018-11-14T04:06:47.760Z,5.9
2018-11-14T04:11:47.587Z,5.9
2018-11-14T04:16:47.592Z,5.9
2018-11-14T04:21:47.719Z,5.6
2018-11-14T04:26:47.781Z,5.8
2018-11-14T04:31:47.714Z,5.7
2018-11-14T04:36:47.555Z,5.7
2018-11-14T04:41:47.608Z,5.7
2018-11-14T04:46:47.751Z,5.5
2018-11-14T04:51:47.623Z,5.6
2018-11-14T04:56:47.605Z,5.6
2018-11-14T05:01:47.597Z,5.6
2018-11-14T05:06:47.609Z,5.6
2018-11-14T05:11:47.615Z,5.5
2018-11-14T05:16:47.637Z,5.5
2018-11-14T05:21:47.625Z,5.3
2018-11-14T05:26:47.574Z,5.4
2018-11-14T05:31:47.695Z,5.3
2018-11-14T05:36:47.628Z,5.3
2018-11-14T05:41:47.631Z,5.3
2018-11-14T05:46:47.826Z,5.1
2018-11-14T05:51:47.823Z,5.3
2018-11-14T05:56:47.774Z,5.4
2018-11-14T06:01:47.817Z,5.5
2018-11-14T06:06:47.659Z,5.6
2018-11-14T06:11:47.647Z,5.7
2018-11-14T06:16:47.806Z,5.7
2018-11-14T06:21:47.660Z,5.8
2018-11-14T06:26:47.744Z,5.9
2018-11-14T06:31:47.661Z,5.8
2018-11-14T06:36:47.826Z,6
2018-11-14T06:41:47.962Z,6.2
2018-11-14T06:46:47.667Z,6.6
2018-11-14T06:51:47.648Z,6.7
2018-11-14T06:56:47.886Z,6.9
2018-11-14T07:01:47.801Z,7
2018-11-14T07:06:47.673Z,7.1
2018-11-14T07:11:47.669Z,7.2
2018-11-14T07:16:47.677Z,7.2
2018-11-14T07:21:47.671Z,7.3
2018-11-14T07:26:47.879Z,7.4
2018-11-14T07:31:47.807Z,7.5
2018-11-14T07:36:47.701Z,7.6
2018-11-14T07:41:47.898Z,7.7
2018-11-14T07:46:47.705Z,7.8
2018-11-14T07:51:47.843Z,7.9
2018-11-14T07:56:47.704Z,8
2018-11-14T08:01:47.700Z,8.1
2018-11-14T08:06:47.851Z,8.2
2018-11-14T08:11:47.709Z,8.2
2018-11-14T08:16:47.723Z,8.3
2018-11-14T08:21:47.950Z,8.4
2018-11-14T08:26:47.670Z,8.5
2018-11-14T08:31:47.914Z,8.5
2018-11-14T08:36:47.854Z,8.6
2018-11-14T08:41:47.717Z,8.7
2018-11-14T08:46:47.736Z,8.7
2018-11-14T08:51:47.718Z,8.8
2018-11-14T08:56:47.725Z,8.8
2018-11-14T09:01:47.920Z,8.7
2018-11-14T09:06:47.719Z,8.8
2018-11-14T09:11:47.731Z,8.8
2018-11-14T09:16:47.742Z,8.9
2018-11-14T09:21:47.749Z,9
2018-11-14T09:26:47.891Z,9.1
2018-11-14T09:31:47.916Z,9.2
2018-11-14T09:36:47.946Z,9.3
2018-11-14T09:41:47.994Z,9.3
2018-11-14T09:46:47.772Z,9.3
2018-11-14T09:51:47.950Z,9.3
2018-11-14T09:56:47.857Z,9.5
2018-11-14T10:01:47.903Z,9.5
2018-11-14T10:06:47.938Z,9.3
2018-11-14T10:11:48.008Z,9.3
2018-11-14T10:16:47.786Z,9.5
2018-11-14T10:21:47.760Z,9.8
2018-11-14T10:26:47.989Z,9.9
2018-11-14T10:31:47.874Z,9.9
2018-11-14T10:36:47.939Z,9.8
2018-11-14T10:41:47.787Z,9.7
2018-11-14T10:46:48.014Z,10
2018-11-14T10:51:47.797Z,10.2
2018-11-14T10:56:47.804Z,10
2018-11-14T11:01:48.012Z,9.8
2018-11-14T11:06:47.797Z,10
2018-11-14T11:11:47.993Z,10.2
2018-11-14T11:16:48.021Z,10.1
2018-11-14T11:21:47.939Z,10
2018-11-14T11:26:47.812Z,10.1
2018-11-14T11:31:47.978Z,10.1
2018-11-14T11:36:47.832Z,9.9
2018-11-14T11:41:47.913Z,10.1
2018-11-14T11:46:48.027Z,10
2018-11-14T11:51:48.052Z,10
2018-11-14T11:56:47.818Z,10
2018-11-14T12:01:48.016Z,9.9
2018-11-14T12:06:47.832Z,10.2
2018-11-14T12:11:47.819Z,10.5
2018-11-14T12:16:47.828Z,11
2018-11-14T12:21:47.816Z,10.8
2018-11-14T12:26:47.972Z,10.5
2018-11-14T12:31:47.988Z,10.3
2018-11-14T12:36:47.863Z,10.5
2018-11-14T12:41:47.813Z,10.5
2018-11-14T12:46:49.013Z,10.8
2018-11-14T12:51:47.856Z,10.7
2018-11-14T12:56:47.813Z,10.5
2018-11-14T13:01:47.844Z,10.6
2018-11-14T13:06:48.062Z,10.8
2018-11-14T13:11:48.051Z,10.9
2018-11-14T13:16:47.871Z,10.9
2018-11-14T13:21:48.052Z,10.6
2018-11-14T13:26:47.878Z,10.5
2018-11-14T13:31:48.009Z,10.6
2018-11-14T13:36:48.044Z,10.4
2018-11-14T13:41:47.881Z,10.6
2018-11-14T13:46:47.871Z,10.5
2018-11-14T13:51:48.046Z,10.6
2018-11-14T13:56:48.091Z,10.6
2018-11-14T14:01:48.123Z,10.4
2018-11-14T14:06:48.015Z,10.5
2018-11-14T14:11:48.006Z,10.4
2018-11-14T14:16:48.119Z,10.2
2018-11-14T14:21:47.890Z,10.1
2018-11-14T14:26:47.877Z,10
2018-11-14T14:31:47.902Z,9.9
2018-11-14T14:36:48.044Z,9.9
2018-11-14T14:41:48.068Z,9.8
2018-11-14T14:46:48.025Z,9.6
2018-11-14T14:51:48.034Z,9.6
2018-11-14T14:56:48.073Z,9.6
2018-11-14T15:01:47.922Z,9.4
2018-11-14T15:06:48.161Z,9.4
2018-11-14T15:11:48.070Z,9.3
2018-11-14T15:16:48.130Z,9.2
2018-11-14T15:21:48.145Z,9.1
2018-11-14T15:26:48.069Z,8.9
2018-11-14T15:31:47.925Z,8.7
2018-11-14T15:36:47.927Z,8.6
2018-11-14T15:41:47.920Z,8.4
2018-11-14T15:46:47.930Z,8.2
2018-11-14T15:51:48.084Z,8
2018-11-14T15:56:48.415Z,7.9
2018-11-14T16:01:47.947Z,7.7
2018-11-14T16:06:47.951Z,7.7
2018-11-14T16:11:47.942Z,7.4
2018-11-14T16:16:47.979Z,7.4
2018-11-14T16:21:47.956Z,7.1
2018-11-14T16:26:48.102Z,7
2018-11-14T16:31:48.012Z,6.9
2018-11-14T16:36:47.964Z,6.8
2018-11-14T16:41:47.951Z,6.7
2018-11-14T16:46:47.977Z,6.6
2018-11-14T16:51:47.983Z,6.4
2018-11-14T16:56:47.973Z,6.4
2018-11-14T17:01:47.973Z,6.2
2018-11-14T17:06:48.011Z,6.1
2018-11-14T17:11:48.350Z,5.9
2018-11-14T17:16:49.310Z,5.9
2018-11-14T17:21:51.056Z,5.7
2018-11-14T17:26:49.460Z,5.7
2018-11-14T17:31:49.344Z,5.6
2018-11-14T17:36:49.384Z,5.4
2018-11-14T17:41:49.375Z,5.4
2018-11-14T17:46:49.374Z,5.3
2018-11-14T17:51:49.852Z,5.3
2018-11-14T17:56:49.334Z,5.1
2018-11-14T18:01:49.815Z,5
2018-11-14T18:06:49.354Z,5
2018-11-14T18:11:49.646Z,4.9
2018-11-14T18:16:49.647Z,4.9
2018-11-14T18:21:49.370Z,4.7
2018-11-14T18:26:49.364Z,4.7
2018-11-14T18:31:49.363Z,4.8
2018-11-14T18:36:49.365Z,4.8
2018-11-14T18:41:49.456Z,4.8
2018-11-14T18:46:49.402Z,4.8
2018-11-14T18:51:49.374Z,4.8
2018-11-14T18:56:49.418Z,4.8
2018-11-14T19:01:49.361Z,4.9
2018-11-14T19:09:48.644Z,5
2018-11-14T19:14:48.654Z,4.9
2018-11-14T19:19:48.595Z,4.9
2018-11-14T19:24:49.516Z,4.9
2018-11-14T19:29:48.947Z,4.9
2018-11-14T19:34:49.099Z,4.7
2018-11-14T19:39:49.157Z,4.6
2018-11-14T19:44:49.431Z,4.5
2018-11-14T19:49:49.192Z,4.6
2018-11-14T19:54:49.221Z,4.4
2018-11-14T19:59:49.339Z,4.5
2018-11-14T20:04:48.872Z,4.5
2018-11-14T20:09:49.081Z,4.7
2018-11-14T20:14:48.617Z,4.6
2018-11-14T20:19:48.616Z,4.7
2018-11-14T20:24:48.617Z,4.7
2018-11-14T20:29:48.638Z,4.7
2018-11-14T20:34:48.638Z,4.8
2018-11-14T20:39:48.622Z,4.9
2018-11-14T20:44:48.630Z,5
2018-11-14T20:49:48.651Z,5.1
2018-11-14T20:54:48.655Z,5.2
2018-11-14T20:59:48.629Z,5.1
2018-11-14T21:04:48.652Z,5.1
2018-11-14T21:09:48.869Z,4.9
2018-11-14T21:14:48.665Z,5
2018-11-14T21:19:48.664Z,4.9
2018-11-14T21:24:48.891Z,4.9
2018-11-14T21:29:48.771Z,4.9
2018-11-14T21:34:48.661Z,5
2018-11-14T21:39:48.649Z,4.9
2018-11-14T21:44:48.815Z,4.9
2018-11-14T21:49:48.671Z,5
2018-11-14T21:54:48.894Z,5.1
2018-11-14T21:59:48.684Z,5
2018-11-14T22:04:48.675Z,5
2018-11-14T22:09:48.676Z,5
2018-11-14T22:14:48.685Z,5
2018-11-14T22:19:48.641Z,5.1
2018-11-14T22:24:48.889Z,5
2018-11-14T22:29:48.814Z,5
2018-11-14T22:34:48.957Z,5
2018-11-14T22:39:48.705Z,4.9
2018-11-14T22:44:48.923Z,4.7
2018-11-14T22:49:48.853Z,4.7
2018-11-14T22:54:48.721Z,4.8
2018-11-14T22:59:48.921Z,4.9
2018-11-14T23:04:48.842Z,4.9
2018-11-14T23:09:48.959Z,4.8
2018-11-14T23:14:48.716Z,4.7
2018-11-14T23:19:48.843Z,4.8
2018-11-14T23:24:48.734Z,4.7
2018-11-14T23:29:48.724Z,4.7
2018-11-14T23:34:48.720Z,4.6
2018-11-14T23:39:48.894Z,4.7
2018-11-14T23:44:48.716Z,4.6
2018-11-14T23:49:48.955Z,4.5
2018-11-14T23:54:48.734Z,4.5
2018-11-14T23:59:48.919Z,4.5
